sensor_id;sensor_type;location;lat;lon;timestamp;P1;durP1;ratioP1;P2;durP2;ratioP2
16731;SDS011;8484;50.904;9.192;2024-02-16T00:01:56;3.00;;;1.57;;
16731;SDS011;8484;50.904;9.192;2024-02-16T00:04:42;2.53;;;1.43;;
16731;SDS011;8484;50.904;9.192;2024-02-16T00:07:27;4.40;;;1.70;;
16731;SDS011;8484;50.904;9.192;2024-02-16T00:10:14;4.67;;;1.80;;
16731;SDS011;8484;50.904;9.192;2024-02-16T00:13:02;4.00;;;1.43;;
16731;SDS011;8484;50.904;9.192;2024-02-16T00:15:48;2.40;;;1.60;;
16731;SDS011;8484;50.904;9.192;2024-02-16T00:18:33;4.33;;;1.70;;
16731;SDS011;8484;50.904;9.192;2024-02-16T00:21:26;4.03;;;1.90;;
16731;SDS011;8484;50.904;9.192;2024-02-16T00:24:12;3.63;;;1.43;;
16731;SDS011;8484;50.904;9.192;2024-02-16T00:26:59;3.23;;;1.63;;
16731;SDS011;8484;50.904;9.192;2024-02-16T00:29:51;2.07;;;1.40;;
16731;SDS011;8484;50.904;9.192;2024-02-16T00:32:38;3.23;;;1.60;;
16731;SDS011;8484;50.904;9.192;2024-02-16T00:35:24;2.20;;;1.63;;
16731;SDS011;8484;50.904;9.192;2024-02-16T00:38:09;3.07;;;1.60;;
16731;SDS011;8484;50.904;9.192;2024-02-16T00:40:55;4.93;;;1.53;;
16731;SDS011;8484;50.904;9.192;2024-02-16T00:43:42;2.63;;;1.60;;
16731;SDS011;8484;50.904;9.192;2024-02-16T00:46:28;4.17;;;1.70;;
16731;SDS011;8484;50.904;9.192;2024-02-16T00:49:22;3.17;;;1.63;;
16731;SDS011;8484;50.904;9.192;2024-02-16T00:52:07;2.73;;;1.77;;
16731;SDS011;8484;50.904;9.192;2024-02-16T00:54:53;2.33;;;1.60;;
16731;SDS011;8484;50.904;9.192;2024-02-16T00:57:39;4.00;;;1.47;;
16731;SDS011;8484;50.904;9.192;2024-02-16T01:00:26;4.73;;;1.83;;
16731;SDS011;8484;50.904;9.192;2024-02-16T01:03:12;3.03;;;1.97;;
16731;SDS011;8484;50.904;9.192;2024-02-16T01:05:57;4.83;;;1.67;;
16731;SDS011;8484;50.904;9.192;2024-02-16T01:08:43;3.53;;;1.60;;
16731;SDS011;8484;50.904;9.192;2024-02-16T01:11:29;2.57;;;1.63;;
16731;SDS011;8484;50.904;9.192;2024-02-16T01:14:15;3.27;;;1.63;;
16731;SDS011;8484;50.904;9.192;2024-02-16T01:17:01;2.13;;;1.60;;
16731;SDS011;8484;50.904;9.192;2024-02-16T01:19:47;4.30;;;1.90;;
16731;SDS011;8484;50.904;9.192;2024-02-16T01:22:33;4.50;;;1.70;;
16731;SDS011;8484;50.904;9.192;2024-02-16T01:25:18;3.17;;;1.90;;
16731;SDS011;8484;50.904;9.192;2024-02-16T01:28:04;3.47;;;1.70;;
16731;SDS011;8484;50.904;9.192;2024-02-16T01:30:50;4.53;;;1.80;;
16731;SDS011;8484;50.904;9.192;2024-02-16T01:33:37;2.03;;;1.50;;
16731;SDS011;8484;50.904;9.192;2024-02-16T01:36:22;2.90;;;1.67;;
16731;SDS011;8484;50.904;9.192;2024-02-16T01:39:08;1.83;;;1.43;;
16731;SDS011;8484;50.904;9.192;2024-02-16T01:41:54;1.90;;;1.40;;
16731;SDS011;8484;50.904;9.192;2024-02-16T01:44:39;3.53;;;1.40;;
16731;SDS011;8484;50.904;9.192;2024-02-16T01:47:25;3.67;;;1.60;;
16731;SDS011;8484;50.904;9.192;2024-02-16T01:50:12;1.53;;;1.43;;
16731;SDS011;8484;50.904;9.192;2024-02-16T01:52:59;4.50;;;1.70;;
16731;SDS011;8484;50.904;9.192;2024-02-16T01:55:45;2.23;;;1.57;;
16731;SDS011;8484;50.904;9.192;2024-02-16T01:58:31;5.67;;;1.83;;
16731;SDS011;8484;50.904;9.192;2024-02-16T02:01:23;3.10;;;1.80;;
16731;SDS011;8484;50.904;9.192;2024-02-16T02:04:08;3.33;;;2.10;;
16731;SDS011;8484;50.904;9.192;2024-02-16T02:06:55;5.00;;;1.87;;
16731;SDS011;8484;50.904;9.192;2024-02-16T02:09:44;4.63;;;1.80;;
16731;SDS011;8484;50.904;9.192;2024-02-16T02:12:30;1.67;;;1.40;;
16731;SDS011;8484;50.904;9.192;2024-02-16T02:15:16;2.00;;;1.40;;
16731;SDS011;8484;50.904;9.192;2024-02-16T02:18:01;2.23;;;1.50;;
16731;SDS011;8484;50.904;9.192;2024-02-16T02:20:47;2.80;;;1.40;;
16731;SDS011;8484;50.904;9.192;2024-02-16T02:23:43;1.87;;;1.50;;
16731;SDS011;8484;50.904;9.192;2024-02-16T02:26:32;3.20;;;1.63;;
16731;SDS011;8484;50.904;9.192;2024-02-16T02:29:20;2.57;;;1.50;;
16731;SDS011;8484;50.904;9.192;2024-02-16T02:32:09;3.80;;;1.90;;
16731;SDS011;8484;50.904;9.192;2024-02-16T02:34:56;2.93;;;1.93;;
16731;SDS011;8484;50.904;9.192;2024-02-16T02:37:42;2.23;;;1.60;;
16731;SDS011;8484;50.904;9.192;2024-02-16T02:40:30;4.03;;;1.57;;
16731;SDS011;8484;50.904;9.192;2024-02-16T02:43:18;4.03;;;1.80;;
16731;SDS011;8484;50.904;9.192;2024-02-16T02:46:05;3.07;;;1.77;;
16731;SDS011;8484;50.904;9.192;2024-02-16T02:48:54;3.20;;;1.93;;
16731;SDS011;8484;50.904;9.192;2024-02-16T02:51:40;2.87;;;1.60;;
16731;SDS011;8484;50.904;9.192;2024-02-16T02:54:28;2.97;;;1.63;;
16731;SDS011;8484;50.904;9.192;2024-02-16T02:57:17;3.07;;;1.70;;
16731;SDS011;8484;50.904;9.192;2024-02-16T03:00:03;2.17;;;1.33;;
16731;SDS011;8484;50.904;9.192;2024-02-16T03:02:54;2.43;;;1.90;;
16731;SDS011;8484;50.904;9.192;2024-02-16T03:05:40;2.50;;;1.80;;
16731;SDS011;8484;50.904;9.192;2024-02-16T03:08:29;3.30;;;1.97;;
16731;SDS011;8484;50.904;9.192;2024-02-16T03:11:14;4.47;;;2.07;;
16731;SDS011;8484;50.904;9.192;2024-02-16T03:14:02;4.23;;;1.60;;
16731;SDS011;8484;50.904;9.192;2024-02-16T03:16:48;3.90;;;1.70;;
16731;SDS011;8484;50.904;9.192;2024-02-16T03:19:34;4.67;;;1.83;;
16731;SDS011;8484;50.904;9.192;2024-02-16T03:22:21;2.47;;;1.83;;
16731;SDS011;8484;50.904;9.192;2024-02-16T03:25:06;3.17;;;2.00;;
16731;SDS011;8484;50.904;9.192;2024-02-16T03:27:52;5.70;;;2.30;;
16731;SDS011;8484;50.904;9.192;2024-02-16T03:30:40;3.37;;;2.03;;
16731;SDS011;8484;50.904;9.192;2024-02-16T03:33:26;5.27;;;1.93;;
16731;SDS011;8484;50.904;9.192;2024-02-16T03:36:12;4.63;;;2.07;;
16731;SDS011;8484;50.904;9.192;2024-02-16T03:38:58;3.43;;;2.27;;
16731;SDS011;8484;50.904;9.192;2024-02-16T03:41:44;3.17;;;2.00;;
16731;SDS011;8484;50.904;9.192;2024-02-16T03:44:35;2.30;;;1.83;;
16731;SDS011;8484;50.904;9.192;2024-02-16T03:47:25;3.37;;;1.60;;
16731;SDS011;8484;50.904;9.192;2024-02-16T03:50:11;3.33;;;1.80;;
16731;SDS011;8484;50.904;9.192;2024-02-16T03:52:58;3.37;;;1.90;;
16731;SDS011;8484;50.904;9.192;2024-02-16T03:55:44;2.10;;;1.60;;
16731;SDS011;8484;50.904;9.192;2024-02-16T03:58:30;2.90;;;1.50;;
16731;SDS011;8484;50.904;9.192;2024-02-16T04:01:16;3.93;;;1.80;;
16731;SDS011;8484;50.904;9.192;2024-02-16T04:04:03;2.93;;;1.77;;
16731;SDS011;8484;50.904;9.192;2024-02-16T04:06:49;2.10;;;1.63;;
16731;SDS011;8484;50.904;9.192;2024-02-16T04:09:35;3.27;;;1.83;;
16731;SDS011;8484;50.904;9.192;2024-02-16T04:12:20;1.80;;;1.53;;
16731;SDS011;8484;50.904;9.192;2024-02-16T04:15:06;2.63;;;1.53;;
16731;SDS011;8484;50.904;9.192;2024-02-16T04:17:52;2.43;;;1.60;;
16731;SDS011;8484;50.904;9.192;2024-02-16T04:20:39;3.07;;;1.70;;
16731;SDS011;8484;50.904;9.192;2024-02-16T04:23:25;1.60;;;1.50;;
16731;SDS011;8484;50.904;9.192;2024-02-16T04:26:10;3.20;;;2.00;;
16731;SDS011;8484;50.904;9.192;2024-02-16T04:28:56;3.43;;;1.70;;
16731;SDS011;8484;50.904;9.192;2024-02-16T04:31:42;3.30;;;2.00;;
16731;SDS011;8484;50.904;9.192;2024-02-16T04:34:29;4.13;;;1.83;;
16731;SDS011;8484;50.904;9.192;2024-02-16T04:37:16;3.27;;;1.90;;
16731;SDS011;8484;50.904;9.192;2024-02-16T04:40:02;3.33;;;1.90;;
16731;SDS011;8484;50.904;9.192;2024-02-16T04:42:49;2.53;;;1.60;;
16731;SDS011;8484;50.904;9.192;2024-02-16T04:45:35;3.37;;;2.10;;
16731;SDS011;8484;50.904;9.192;2024-02-16T04:48:20;2.53;;;1.67;;
16731;SDS011;8484;50.904;9.192;2024-02-16T04:51:06;2.57;;;1.60;;
16731;SDS011;8484;50.904;9.192;2024-02-16T04:53:53;2.97;;;1.93;;
16731;SDS011;8484;50.904;9.192;2024-02-16T04:56:39;3.23;;;1.60;;
16731;SDS011;8484;50.904;9.192;2024-02-16T04:59:24;2.97;;;1.87;;
16731;SDS011;8484;50.904;9.192;2024-02-16T05:02:11;3.97;;;1.70;;
16731;SDS011;8484;50.904;9.192;2024-02-16T05:04:57;2.50;;;1.67;;
16731;SDS011;8484;50.904;9.192;2024-02-16T05:07:43;2.40;;;1.80;;
16731;SDS011;8484;50.904;9.192;2024-02-16T05:10:32;4.07;;;2.13;;
16731;SDS011;8484;50.904;9.192;2024-02-16T05:13:18;2.30;;;1.80;;
16731;SDS011;8484;50.904;9.192;2024-02-16T05:16:07;2.83;;;2.00;;
16731;SDS011;8484;50.904;9.192;2024-02-16T05:18:55;3.50;;;2.00;;
16731;SDS011;8484;50.904;9.192;2024-02-16T05:21:41;2.43;;;1.80;;
16731;SDS011;8484;50.904;9.192;2024-02-16T05:24:27;2.23;;;1.60;;
16731;SDS011;8484;50.904;9.192;2024-02-16T05:27:14;3.63;;;2.00;;
16731;SDS011;8484;50.904;9.192;2024-02-16T05:30:00;3.40;;;1.93;;
16731;SDS011;8484;50.904;9.192;2024-02-16T05:32:46;2.77;;;1.67;;
16731;SDS011;8484;50.904;9.192;2024-02-16T05:35:32;3.93;;;1.77;;
16731;SDS011;8484;50.904;9.192;2024-02-16T05:38:23;5.27;;;1.63;;
16731;SDS011;8484;50.904;9.192;2024-02-16T05:41:18;3.03;;;1.60;;
16731;SDS011;8484;50.904;9.192;2024-02-16T05:44:05;3.17;;;1.53;;
16731;SDS011;8484;50.904;9.192;2024-02-16T05:46:53;2.83;;;1.80;;
16731;SDS011;8484;50.904;9.192;2024-02-16T05:49:38;2.27;;;1.60;;
16731;SDS011;8484;50.904;9.192;2024-02-16T05:52:24;2.70;;;1.80;;
16731;SDS011;8484;50.904;9.192;2024-02-16T05:55:10;5.33;;;1.30;;
16731;SDS011;8484;50.904;9.192;2024-02-16T05:57:56;2.03;;;1.60;;
16731;SDS011;8484;50.904;9.192;2024-02-16T06:00:43;3.03;;;1.70;;
16731;SDS011;8484;50.904;9.192;2024-02-16T06:03:30;2.60;;;1.63;;
16731;SDS011;8484;50.904;9.192;2024-02-16T06:06:16;2.23;;;1.90;;
16731;SDS011;8484;50.904;9.192;2024-02-16T06:09:02;2.27;;;1.57;;
16731;SDS011;8484;50.904;9.192;2024-02-16T06:11:49;3.17;;;1.87;;
16731;SDS011;8484;50.904;9.192;2024-02-16T06:14:35;2.87;;;1.80;;
16731;SDS011;8484;50.904;9.192;2024-02-16T06:17:22;1.70;;;1.23;;
16731;SDS011;8484;50.904;9.192;2024-02-16T06:20:08;1.90;;;1.27;;
16731;SDS011;8484;50.904;9.192;2024-02-16T06:22:54;3.50;;;1.50;;
16731;SDS011;8484;50.904;9.192;2024-02-16T06:25:40;3.97;;;1.80;;
16731;SDS011;8484;50.904;9.192;2024-02-16T06:28:26;4.80;;;1.70;;
16731;SDS011;8484;50.904;9.192;2024-02-16T06:31:12;2.83;;;1.60;;
16731;SDS011;8484;50.904;9.192;2024-02-16T06:33:59;3.27;;;1.60;;
16731;SDS011;8484;50.904;9.192;2024-02-16T06:36:45;2.87;;;1.70;;
16731;SDS011;8484;50.904;9.192;2024-02-16T06:39:31;5.67;;;3.27;;
16731;SDS011;8484;50.904;9.192;2024-02-16T06:42:16;4.03;;;1.80;;
16731;SDS011;8484;50.904;9.192;2024-02-16T06:45:02;2.33;;;1.67;;
16731;SDS011;8484;50.904;9.192;2024-02-16T06:47:49;3.83;;;1.70;;
16731;SDS011;8484;50.904;9.192;2024-02-16T06:50:35;2.90;;;1.67;;
16731;SDS011;8484;50.904;9.192;2024-02-16T06:53:21;4.20;;;1.60;;
16731;SDS011;8484;50.904;9.192;2024-02-16T06:56:07;1.93;;;1.73;;
16731;SDS011;8484;50.904;9.192;2024-02-16T06:58:53;7.17;;;1.70;;
16731;SDS011;8484;50.904;9.192;2024-02-16T07:01:39;1.50;;;1.40;;
16731;SDS011;8484;50.904;9.192;2024-02-16T07:04:24;3.10;;;1.57;;
16731;SDS011;8484;50.904;9.192;2024-02-16T07:07:11;1.73;;;1.50;;
16731;SDS011;8484;50.904;9.192;2024-02-16T07:09:57;3.10;;;1.63;;
16731;SDS011;8484;50.904;9.192;2024-02-16T07:12:42;1.70;;;1.60;;
16731;SDS011;8484;50.904;9.192;2024-02-16T07:15:28;3.60;;;1.70;;
16731;SDS011;8484;50.904;9.192;2024-02-16T07:18:15;3.23;;;1.77;;
16731;SDS011;8484;50.904;9.192;2024-02-16T07:21:00;3.40;;;1.60;;
16731;SDS011;8484;50.904;9.192;2024-02-16T07:23:47;2.47;;;1.40;;
16731;SDS011;8484;50.904;9.192;2024-02-16T07:26:33;2.17;;;1.50;;
16731;SDS011;8484;50.904;9.192;2024-02-16T07:29:19;2.23;;;1.60;;
16731;SDS011;8484;50.904;9.192;2024-02-16T07:32:05;3.00;;;1.60;;
16731;SDS011;8484;50.904;9.192;2024-02-16T07:34:51;3.83;;;1.80;;
16731;SDS011;8484;50.904;9.192;2024-02-16T07:37:37;2.33;;;1.53;;
16731;SDS011;8484;50.904;9.192;2024-02-16T07:40:24;2.33;;;1.50;;
16731;SDS011;8484;50.904;9.192;2024-02-16T07:43:16;2.40;;;1.67;;
16731;SDS011;8484;50.904;9.192;2024-02-16T07:46:02;3.47;;;1.80;;
16731;SDS011;8484;50.904;9.192;2024-02-16T07:48:48;5.83;;;1.93;;
16731;SDS011;8484;50.904;9.192;2024-02-16T07:51:34;5.93;;;1.87;;
16731;SDS011;8484;50.904;9.192;2024-02-16T07:54:20;5.57;;;2.40;;
16731;SDS011;8484;50.904;9.192;2024-02-16T07:57:07;5.97;;;1.67;;
16731;SDS011;8484;50.904;9.192;2024-02-16T07:59:53;6.43;;;1.90;;
16731;SDS011;8484;50.904;9.192;2024-02-16T08:02:38;5.97;;;1.30;;
16731;SDS011;8484;50.904;9.192;2024-02-16T08:05:25;2.97;;;1.80;;
16731;SDS011;8484;50.904;9.192;2024-02-16T08:08:11;2.30;;;1.50;;
16731;SDS011;8484;50.904;9.192;2024-02-16T08:10:57;2.97;;;1.70;;
16731;SDS011;8484;50.904;9.192;2024-02-16T08:13:44;2.40;;;1.63;;
16731;SDS011;8484;50.904;9.192;2024-02-16T08:16:30;2.87;;;1.60;;
16731;SDS011;8484;50.904;9.192;2024-02-16T08:19:16;2.80;;;1.60;;
16731;SDS011;8484;50.904;9.192;2024-02-16T08:22:01;2.17;;;1.30;;
16731;SDS011;8484;50.904;9.192;2024-02-16T08:24:48;3.60;;;1.70;;
16731;SDS011;8484;50.904;9.192;2024-02-16T08:27:33;2.27;;;1.27;;
16731;SDS011;8484;50.904;9.192;2024-02-16T08:30:21;2.63;;;1.40;;
16731;SDS011;8484;50.904;9.192;2024-02-16T08:33:07;1.43;;;1.10;;
16731;SDS011;8484;50.904;9.192;2024-02-16T08:35:52;3.20;;;1.40;;
16731;SDS011;8484;50.904;9.192;2024-02-16T08:38:38;3.00;;;1.30;;
16731;SDS011;8484;50.904;9.192;2024-02-16T08:41:23;2.10;;;1.33;;
16731;SDS011;8484;50.904;9.192;2024-02-16T08:44:09;2.47;;;1.67;;
16731;SDS011;8484;50.904;9.192;2024-02-16T08:46:56;1.27;;;1.13;;
16731;SDS011;8484;50.904;9.192;2024-02-16T08:49:42;3.17;;;1.47;;
16731;SDS011;8484;50.904;9.192;2024-02-16T08:52:28;3.73;;;1.40;;
16731;SDS011;8484;50.904;9.192;2024-02-16T08:55:13;2.40;;;1.47;;
16731;SDS011;8484;50.904;9.192;2024-02-16T08:57:59;2.07;;;1.37;;
16731;SDS011;8484;50.904;9.192;2024-02-16T09:00:48;3.30;;;1.40;;
16731;SDS011;8484;50.904;9.192;2024-02-16T09:03:35;2.37;;;1.67;;
16731;SDS011;8484;50.904;9.192;2024-02-16T09:06:23;1.80;;;1.50;;
16731;SDS011;8484;50.904;9.192;2024-02-16T09:09:09;1.77;;;1.30;;
16731;SDS011;8484;50.904;9.192;2024-02-16T09:11:55;1.93;;;1.50;;
16731;SDS011;8484;50.904;9.192;2024-02-16T09:14:41;1.73;;;1.20;;
16731;SDS011;8484;50.904;9.192;2024-02-16T09:17:26;2.40;;;1.70;;
16731;SDS011;8484;50.904;9.192;2024-02-16T09:20:13;2.33;;;1.67;;
16731;SDS011;8484;50.904;9.192;2024-02-16T09:22:59;2.77;;;1.40;;
16731;SDS011;8484;50.904;9.192;2024-02-16T09:25:45;2.70;;;1.77;;
16731;SDS011;8484;50.904;9.192;2024-02-16T09:28:30;3.07;;;1.60;;
16731;SDS011;8484;50.904;9.192;2024-02-16T09:31:16;2.57;;;1.50;;
16731;SDS011;8484;50.904;9.192;2024-02-16T09:34:02;1.97;;;1.63;;
16731;SDS011;8484;50.904;9.192;2024-02-16T09:36:49;2.70;;;1.70;;
16731;SDS011;8484;50.904;9.192;2024-02-16T09:39:34;1.87;;;1.63;;
16731;SDS011;8484;50.904;9.192;2024-02-16T09:42:20;2.20;;;1.60;;
16731;SDS011;8484;50.904;9.192;2024-02-16T09:45:09;2.97;;;1.60;;
16731;SDS011;8484;50.904;9.192;2024-02-16T09:47:59;1.90;;;1.40;;
16731;SDS011;8484;50.904;9.192;2024-02-16T09:50:46;2.40;;;1.63;;
16731;SDS011;8484;50.904;9.192;2024-02-16T09:53:34;1.77;;;1.37;;
16731;SDS011;8484;50.904;9.192;2024-02-16T09:56:26;2.57;;;1.53;;
16731;SDS011;8484;50.904;9.192;2024-02-16T09:59:12;1.73;;;1.43;;
16731;SDS011;8484;50.904;9.192;2024-02-16T10:02:01;3.23;;;1.47;;
16731;SDS011;8484;50.904;9.192;2024-02-16T10:04:47;2.87;;;1.57;;
16731;SDS011;8484;50.904;9.192;2024-02-16T10:07:32;2.27;;;1.50;;
16731;SDS011;8484;50.904;9.192;2024-02-16T10:10:23;5.93;;;1.90;;
16731;SDS011;8484;50.904;9.192;2024-02-16T10:13:09;4.87;;;1.60;;
16731;SDS011;8484;50.904;9.192;2024-02-16T10:16:03;2.17;;;1.47;;
16731;SDS011;8484;50.904;9.192;2024-02-16T10:18:52;2.13;;;1.27;;
16731;SDS011;8484;50.904;9.192;2024-02-16T10:21:40;2.13;;;1.30;;
16731;SDS011;8484;50.904;9.192;2024-02-16T10:24:26;2.90;;;1.20;;
16731;SDS011;8484;50.904;9.192;2024-02-16T10:27:17;1.63;;;1.30;;
16731;SDS011;8484;50.904;9.192;2024-02-16T10:30:03;1.70;;;1.30;;
16731;SDS011;8484;50.904;9.192;2024-02-16T10:32:54;3.87;;;1.40;;
16731;SDS011;8484;50.904;9.192;2024-02-16T10:35:40;2.47;;;1.53;;
16731;SDS011;8484;50.904;9.192;2024-02-16T10:38:27;2.63;;;1.43;;
16731;SDS011;8484;50.904;9.192;2024-02-16T10:41:12;3.00;;;1.53;;
16731;SDS011;8484;50.904;9.192;2024-02-16T10:44:00;2.40;;;1.27;;
16731;SDS011;8484;50.904;9.192;2024-02-16T10:46:46;4.87;;;1.67;;
16731;SDS011;8484;50.904;9.192;2024-02-16T10:49:32;1.70;;;1.43;;
16731;SDS011;8484;50.904;9.192;2024-02-16T10:52:20;2.93;;;1.40;;
16731;SDS011;8484;50.904;9.192;2024-02-16T10:55:07;2.77;;;1.60;;
16731;SDS011;8484;50.904;9.192;2024-02-16T10:57:53;1.80;;;1.33;;
16731;SDS011;8484;50.904;9.192;2024-02-16T11:00:53;2.83;;;1.57;;
16731;SDS011;8484;50.904;9.192;2024-02-16T11:03:40;2.63;;;1.50;;
16731;SDS011;8484;50.904;9.192;2024-02-16T11:06:26;2.97;;;1.53;;
16731;SDS011;8484;50.904;9.192;2024-02-16T11:09:11;3.43;;;1.40;;
16731;SDS011;8484;50.904;9.192;2024-02-16T11:12:08;2.40;;;1.33;;
16731;SDS011;8484;50.904;9.192;2024-02-16T11:14:57;3.17;;;1.57;;
16731;SDS011;8484;50.904;9.192;2024-02-16T11:17:44;2.30;;;1.70;;
16731;SDS011;8484;50.904;9.192;2024-02-16T11:20:35;1.90;;;1.40;;
16731;SDS011;8484;50.904;9.192;2024-02-16T11:23:27;5.63;;;1.40;;
16731;SDS011;8484;50.904;9.192;2024-02-16T11:26:13;1.90;;;1.40;;
16731;SDS011;8484;50.904;9.192;2024-02-16T11:28:59;3.30;;;1.70;;
16731;SDS011;8484;50.904;9.192;2024-02-16T11:31:45;2.40;;;1.53;;
16731;SDS011;8484;50.904;9.192;2024-02-16T11:34:33;2.90;;;1.40;;
16731;SDS011;8484;50.904;9.192;2024-02-16T11:37:21;2.70;;;1.47;;
16731;SDS011;8484;50.904;9.192;2024-02-16T11:40:07;2.27;;;1.50;;
16731;SDS011;8484;50.904;9.192;2024-02-16T11:42:57;3.73;;;1.60;;
16731;SDS011;8484;50.904;9.192;2024-02-16T11:45:58;3.40;;;1.80;;
16731;SDS011;8484;50.904;9.192;2024-02-16T11:48:50;1.50;;;1.40;;
16731;SDS011;8484;50.904;9.192;2024-02-16T11:51:37;2.37;;;1.30;;
16731;SDS011;8484;50.904;9.192;2024-02-16T11:54:23;4.47;;;1.83;;
16731;SDS011;8484;50.904;9.192;2024-02-16T11:57:08;1.97;;;1.70;;
16731;SDS011;8484;50.904;9.192;2024-02-16T11:59:54;2.30;;;1.67;;
16731;SDS011;8484;50.904;9.192;2024-02-16T12:02:40;2.10;;;1.50;;
16731;SDS011;8484;50.904;9.192;2024-02-16T12:05:25;3.37;;;1.70;;
16731;SDS011;8484;50.904;9.192;2024-02-16T12:08:12;3.47;;;1.53;;
16731;SDS011;8484;50.904;9.192;2024-02-16T12:10:58;2.63;;;1.40;;
16731;SDS011;8484;50.904;9.192;2024-02-16T12:13:44;2.27;;;1.60;;
16731;SDS011;8484;50.904;9.192;2024-02-16T12:16:29;4.40;;;1.37;;
16731;SDS011;8484;50.904;9.192;2024-02-16T12:19:15;1.63;;;1.47;;
16731;SDS011;8484;50.904;9.192;2024-02-16T12:22:01;1.50;;;1.40;;
16731;SDS011;8484;50.904;9.192;2024-02-16T12:24:48;2.70;;;1.50;;
16731;SDS011;8484;50.904;9.192;2024-02-16T12:27:35;2.90;;;1.80;;
16731;SDS011;8484;50.904;9.192;2024-02-16T12:30:20;3.67;;;1.60;;
16731;SDS011;8484;50.904;9.192;2024-02-16T12:33:06;2.90;;;1.53;;
16731;SDS011;8484;50.904;9.192;2024-02-16T12:35:51;2.07;;;1.70;;
16731;SDS011;8484;50.904;9.192;2024-02-16T12:38:38;3.73;;;1.80;;
16731;SDS011;8484;50.904;9.192;2024-02-16T12:41:25;4.90;;;1.67;;
16731;SDS011;8484;50.904;9.192;2024-02-16T12:44:10;4.70;;;1.60;;
16731;SDS011;8484;50.904;9.192;2024-02-16T12:46:56;7.63;;;1.83;;
16731;SDS011;8484;50.904;9.192;2024-02-16T12:49:41;3.97;;;1.70;;
16731;SDS011;8484;50.904;9.192;2024-02-16T12:52:27;3.03;;;1.80;;
16731;SDS011;8484;50.904;9.192;2024-02-16T12:55:13;2.83;;;1.70;;
16731;SDS011;8484;50.904;9.192;2024-02-16T12:58:01;5.17;;;1.60;;
16731;SDS011;8484;50.904;9.192;2024-02-16T13:00:46;2.93;;;1.70;;
16731;SDS011;8484;50.904;9.192;2024-02-16T13:03:33;6.90;;;2.00;;
16731;SDS011;8484;50.904;9.192;2024-02-16T13:06:18;3.07;;;1.70;;
16731;SDS011;8484;50.904;9.192;2024-02-16T13:09:04;3.70;;;2.00;;
16731;SDS011;8484;50.904;9.192;2024-02-16T13:11:52;3.80;;;1.87;;
16731;SDS011;8484;50.904;9.192;2024-02-16T13:14:39;4.80;;;1.90;;
16731;SDS011;8484;50.904;9.192;2024-02-16T13:17:25;3.97;;;1.70;;
16731;SDS011;8484;50.904;9.192;2024-02-16T13:20:11;3.87;;;2.10;;
16731;SDS011;8484;50.904;9.192;2024-02-16T13:22:56;3.47;;;1.90;;
16731;SDS011;8484;50.904;9.192;2024-02-16T13:25:43;2.47;;;1.73;;
16731;SDS011;8484;50.904;9.192;2024-02-16T13:28:29;3.77;;;1.50;;
16731;SDS011;8484;50.904;9.192;2024-02-16T13:31:16;2.33;;;1.77;;
16731;SDS011;8484;50.904;9.192;2024-02-16T13:34:01;6.90;;;2.17;;
16731;SDS011;8484;50.904;9.192;2024-02-16T13:36:47;4.93;;;1.60;;
16731;SDS011;8484;50.904;9.192;2024-02-16T13:39:33;5.33;;;2.23;;
16731;SDS011;8484;50.904;9.192;2024-02-16T13:42:20;2.57;;;1.93;;
16731;SDS011;8484;50.904;9.192;2024-02-16T13:45:06;3.63;;;1.80;;
16731;SDS011;8484;50.904;9.192;2024-02-16T13:47:54;5.07;;;2.10;;
16731;SDS011;8484;50.904;9.192;2024-02-16T13:50:46;3.03;;;2.10;;
16731;SDS011;8484;50.904;9.192;2024-02-16T13:53:32;3.60;;;1.87;;
16731;SDS011;8484;50.904;9.192;2024-02-16T13:56:18;4.30;;;2.07;;
16731;SDS011;8484;50.904;9.192;2024-02-16T13:59:04;7.67;;;2.43;;
16731;SDS011;8484;50.904;9.192;2024-02-16T14:01:50;4.83;;;2.47;;
16731;SDS011;8484;50.904;9.192;2024-02-16T14:04:37;5.20;;;2.30;;
16731;SDS011;8484;50.904;9.192;2024-02-16T14:07:23;4.60;;;2.03;;
16731;SDS011;8484;50.904;9.192;2024-02-16T14:10:08;3.60;;;2.20;;
16731;SDS011;8484;50.904;9.192;2024-02-16T14:12:54;3.23;;;1.80;;
16731;SDS011;8484;50.904;9.192;2024-02-16T14:15:39;6.57;;;1.90;;
16731;SDS011;8484;50.904;9.192;2024-02-16T14:18:25;2.60;;;1.93;;
16731;SDS011;8484;50.904;9.192;2024-02-16T14:21:13;5.07;;;2.13;;
16731;SDS011;8484;50.904;9.192;2024-02-16T14:24:05;4.93;;;1.93;;
16731;SDS011;8484;50.904;9.192;2024-02-16T14:26:51;2.00;;;1.57;;
16731;SDS011;8484;50.904;9.192;2024-02-16T14:29:37;3.80;;;2.10;;
16731;SDS011;8484;50.904;9.192;2024-02-16T14:32:22;3.57;;;1.60;;
16731;SDS011;8484;50.904;9.192;2024-02-16T14:35:08;2.93;;;1.77;;
16731;SDS011;8484;50.904;9.192;2024-02-16T14:37:55;4.50;;;1.90;;
16731;SDS011;8484;50.904;9.192;2024-02-16T14:40:41;3.40;;;2.10;;
16731;SDS011;8484;50.904;9.192;2024-02-16T14:43:27;3.43;;;2.07;;
16731;SDS011;8484;50.904;9.192;2024-02-16T14:46:12;3.10;;;2.20;;
16731;SDS011;8484;50.904;9.192;2024-02-16T14:48:59;5.03;;;2.20;;
16731;SDS011;8484;50.904;9.192;2024-02-16T14:51:44;4.77;;;1.90;;
16731;SDS011;8484;50.904;9.192;2024-02-16T14:54:32;3.67;;;1.93;;
16731;SDS011;8484;50.904;9.192;2024-02-16T14:57:17;3.33;;;1.90;;
16731;SDS011;8484;50.904;9.192;2024-02-16T15:00:04;4.77;;;2.07;;
16731;SDS011;8484;50.904;9.192;2024-02-16T15:02:51;3.50;;;1.87;;
16731;SDS011;8484;50.904;9.192;2024-02-16T15:05:36;3.03;;;1.90;;
16731;SDS011;8484;50.904;9.192;2024-02-16T15:08:22;4.27;;;2.43;;
16731;SDS011;8484;50.904;9.192;2024-02-16T15:11:09;2.60;;;1.83;;
16731;SDS011;8484;50.904;9.192;2024-02-16T15:13:54;5.50;;;2.30;;
16731;SDS011;8484;50.904;9.192;2024-02-16T15:16:40;3.67;;;2.27;;
16731;SDS011;8484;50.904;9.192;2024-02-16T15:19:25;2.63;;;2.00;;
16731;SDS011;8484;50.904;9.192;2024-02-16T15:22:11;3.70;;;2.17;;
16731;SDS011;8484;50.904;9.192;2024-02-16T15:24:57;4.27;;;2.00;;
16731;SDS011;8484;50.904;9.192;2024-02-16T15:27:44;3.70;;;2.30;;
16731;SDS011;8484;50.904;9.192;2024-02-16T15:30:30;4.93;;;2.13;;
16731;SDS011;8484;50.904;9.192;2024-02-16T15:33:15;2.70;;;1.90;;
16731;SDS011;8484;50.904;9.192;2024-02-16T15:36:01;3.13;;;2.00;;
16731;SDS011;8484;50.904;9.192;2024-02-16T15:38:47;5.23;;;2.23;;
16731;SDS011;8484;50.904;9.192;2024-02-16T15:41:34;4.37;;;2.30;;
16731;SDS011;8484;50.904;9.192;2024-02-16T15:44:21;3.17;;;1.93;;
16731;SDS011;8484;50.904;9.192;2024-02-16T15:47:07;3.87;;;2.60;;
16731;SDS011;8484;50.904;9.192;2024-02-16T15:49:54;4.50;;;2.13;;
16731;SDS011;8484;50.904;9.192;2024-02-16T15:52:40;2.40;;;2.03;;
16731;SDS011;8484;50.904;9.192;2024-02-16T15:55:25;3.23;;;1.90;;
16731;SDS011;8484;50.904;9.192;2024-02-16T15:58:11;4.33;;;2.20;;
16731;SDS011;8484;50.904;9.192;2024-02-16T16:00:57;3.30;;;2.00;;
16731;SDS011;8484;50.904;9.192;2024-02-16T16:03:43;7.80;;;2.30;;
16731;SDS011;8484;50.904;9.192;2024-02-16T16:06:30;3.17;;;2.43;;
16731;SDS011;8484;50.904;9.192;2024-02-16T16:09:16;3.37;;;2.33;;
16731;SDS011;8484;50.904;9.192;2024-02-16T16:12:02;5.67;;;2.10;;
16731;SDS011;8484;50.904;9.192;2024-02-16T16:14:48;4.20;;;2.23;;
16731;SDS011;8484;50.904;9.192;2024-02-16T16:17:36;3.53;;;2.20;;
16731;SDS011;8484;50.904;9.192;2024-02-16T16:20:22;5.63;;;2.07;;
16731;SDS011;8484;50.904;9.192;2024-02-16T16:23:08;4.97;;;2.13;;
16731;SDS011;8484;50.904;9.192;2024-02-16T16:25:54;6.03;;;2.30;;
16731;SDS011;8484;50.904;9.192;2024-02-16T16:28:39;2.93;;;1.93;;
16731;SDS011;8484;50.904;9.192;2024-02-16T16:31:25;8.60;;;2.03;;
16731;SDS011;8484;50.904;9.192;2024-02-16T16:34:12;3.40;;;1.97;;
16731;SDS011;8484;50.904;9.192;2024-02-16T16:36:57;4.23;;;1.93;;
16731;SDS011;8484;50.904;9.192;2024-02-16T16:39:43;4.93;;;2.43;;
16731;SDS011;8484;50.904;9.192;2024-02-16T16:42:29;7.33;;;3.27;;
16731;SDS011;8484;50.904;9.192;2024-02-16T16:45:15;5.53;;;2.33;;
16731;SDS011;8484;50.904;9.192;2024-02-16T16:48:01;4.77;;;2.67;;
16731;SDS011;8484;50.904;9.192;2024-02-16T16:50:49;4.10;;;2.63;;
16731;SDS011;8484;50.904;9.192;2024-02-16T16:53:34;5.57;;;2.50;;
16731;SDS011;8484;50.904;9.192;2024-02-16T16:56:20;3.13;;;1.87;;
16731;SDS011;8484;50.904;9.192;2024-02-16T16:59:06;3.50;;;2.50;;